Amissville, Virginia
Current Conditions -  °F | °C
As of 8:15 AM on Thursday 27 Nov 2014 (Local Time) from KCJR Reporting Station
Haze Haze  
Wind Chill: 32°   Ceiling: 7500
Heat Index: 36°   Visibility: 4mi
Dew Point: 36°   Wind: 5mph
Humidity: 100%   Direction: 350°N
Pressure: 30.04"   Gusts: NA
Location:  38.67°N, 77.99°W
Report Text: KCJR 271315Z AUTO 35004KT 4SM BR SCT002 SCT037 BKN075 02/02 A3004 RMK AO2
Loading
Personal Weather Stations






























Interactive Weather Map New forecast layout! Learn more

10-Day Weather Forecast

Advertisements
Track Severe Weather on mobile